sensor_id;sensor_type;location;lat;lon;timestamp;pressure;altitude;pressure_sealevel;temperature;humidity
35676;BME280;21790;42.668;23.298;2023-07-13T00:12:31;94965.22;;;28.86;40.20
35676;BME280;21790;42.668;23.298;2023-07-13T00:18:27;94946.66;;;28.85;41.01
35676;BME280;21790;42.668;23.298;2023-07-13T00:21:47;94951.59;;;28.84;41.05
35676;BME280;21790;42.668;23.298;2023-07-13T00:31:41;94936.28;;;28.64;40.42
35676;BME280;21790;42.668;23.298;2023-07-13T00:37:31;94941.81;;;28.62;40.31
35676;BME280;21790;42.668;23.298;2023-07-13T00:56:47;94947.13;;;28.58;40.74
35676;BME280;21790;42.668;23.298;2023-07-13T01:18:29;94934.34;;;28.35;41.70
35676;BME280;21790;42.668;23.298;2023-07-13T01:21:05;94932.69;;;28.24;41.96
35676;BME280;21790;42.668;23.298;2023-07-13T01:27:19;94904.28;;;28.09;42.41
35676;BME280;21790;42.668;23.298;2023-07-13T01:33:20;94915.25;;;28.05;41.90
35676;BME280;21790;42.668;23.298;2023-07-13T01:35:54;94918.09;;;28.05;42.02
35676;BME280;21790;42.668;23.298;2023-07-13T01:41:59;94921.31;;;28.16;41.81
35676;BME280;21790;42.668;23.298;2023-07-13T01:50:59;94914.91;;;27.93;41.30
35676;BME280;21790;42.668;23.298;2023-07-13T02:03:01;94920.03;;;27.95;41.59
35676;BME280;21790;42.668;23.298;2023-07-13T02:08:51;94925.59;;;27.70;42.46
35676;BME280;21790;42.668;23.298;2023-07-13T02:14:40;94927.06;;;27.78;41.54
35676;BME280;21790;42.668;23.298;2023-07-13T02:27:38;94939.59;;;27.60;42.50
35676;BME280;21790;42.668;23.298;2023-07-13T02:30:34;94954.94;;;27.65;42.29
35676;BME280;21790;42.668;23.298;2023-07-13T02:39:45;94932.59;;;27.54;42.57
35676;BME280;21790;42.668;23.298;2023-07-13T02:45:58;94940.16;;;27.59;42.90
35676;BME280;21790;42.668;23.298;2023-07-13T02:51:58;94941.69;;;27.60;42.45
35676;BME280;21790;42.668;23.298;2023-07-13T02:57:58;94937.88;;;27.42;42.98
35676;BME280;21790;42.668;23.298;2023-07-13T03:04:03;94932.56;;;27.31;42.96
35676;BME280;21790;42.668;23.298;2023-07-13T03:10:08;94954.16;;;27.49;42.58
35676;BME280;21790;42.668;23.298;2023-07-13T03:12:53;94950.97;;;27.53;43.30
35676;BME280;21790;42.668;23.298;2023-07-13T04:52:16;94981.88;;;29.54;42.45
35676;BME280;21790;42.668;23.298;2023-07-13T04:55:15;94995.88;;;29.60;42.52
35676;BME280;21790;42.668;23.298;2023-07-13T04:58:04;94987.06;;;29.73;42.16
35676;BME280;21790;42.668;23.298;2023-07-13T05:00:39;94989.47;;;30.01;41.63
35676;BME280;21790;42.668;23.298;2023-07-13T05:03:26;94988.16;;;30.19;41.30
35676;BME280;21790;42.668;23.298;2023-07-13T05:09:21;94990.59;;;30.40;41.20
35676;BME280;21790;42.668;23.298;2023-07-13T05:18:12;95003.34;;;30.73;40.49
35676;BME280;21790;42.668;23.298;2023-07-13T05:24:26;95004.09;;;30.91;40.36
35676;BME280;21790;42.668;23.298;2023-07-13T05:27:24;95001.66;;;31.05;39.82
35676;BME280;21790;42.668;23.298;2023-07-13T05:29:53;94999.56;;;31.05;39.89
35676;BME280;21790;42.668;23.298;2023-07-13T05:32:28;95002.63;;;31.17;39.45
35676;BME280;21790;42.668;23.298;2023-07-13T05:35:00;95003.06;;;31.13;39.43
35676;BME280;21790;42.668;23.298;2023-07-13T05:40:37;95006.06;;;31.15;39.63
35676;BME280;21790;42.668;23.298;2023-07-13T05:49:45;95010.94;;;31.23;39.51
35676;BME280;21790;42.668;23.298;2023-07-13T05:55:35;95014.59;;;31.33;39.18
35676;BME280;21790;42.668;23.298;2023-07-13T10:22:00;94885.19;;;36.93;25.36
35676;BME280;21790;42.668;23.298;2023-07-13T10:24:33;94896.13;;;37.08;25.73
35676;BME280;21790;42.668;23.298;2023-07-13T10:27:32;94888.84;;;37.07;24.91
35676;BME280;21790;42.668;23.298;2023-07-13T10:30:29;94890.13;;;37.29;24.40
35676;BME280;21790;42.668;23.298;2023-07-13T10:33:03;94881.97;;;37.12;24.60
35676;BME280;21790;42.668;23.298;2023-07-13T10:35:34;94879.75;;;37.24;24.77
35676;BME280;21790;42.668;23.298;2023-07-13T10:38:05;94869.81;;;37.27;24.52
35676;BME280;21790;42.668;23.298;2023-07-13T10:41:02;94886.78;;;36.96;22.99
35676;BME280;21790;42.668;23.298;2023-07-13T10:43:35;94881.84;;;36.84;23.54
35676;BME280;21790;42.668;23.298;2023-07-13T10:46:24;94872.06;;;37.15;24.73
35676;BME280;21790;42.668;23.298;2023-07-13T10:48:57;94864.66;;;37.12;24.64
35676;BME280;21790;42.668;23.298;2023-07-13T10:51:26;94865.63;;;37.16;24.26
35676;BME280;21790;42.668;23.298;2023-07-13T10:59:33;94861.19;;;37.41;24.07
35676;BME280;21790;42.668;23.298;2023-07-13T11:02:13;94845.19;;;37.51;24.02
35676;BME280;21790;42.668;23.298;2023-07-13T11:04:48;94846.94;;;37.56;24.02
35676;BME280;21790;42.668;23.298;2023-07-13T11:07:23;94832.69;;;37.47;23.39
35676;BME280;21790;42.668;23.298;2023-07-13T11:09:52;94852.81;;;37.58;23.74
35676;BME280;21790;42.668;23.298;2023-07-13T11:17:37;94827.28;;;37.66;23.62
35676;BME280;21790;42.668;23.298;2023-07-13T11:30:48;94820.31;;;37.72;24.03
35676;BME280;21790;42.668;23.298;2023-07-13T11:33:22;94812.22;;;37.68;23.71
35676;BME280;21790;42.668;23.298;2023-07-13T11:36:00;94815.09;;;37.68;24.04
35676;BME280;21790;42.668;23.298;2023-07-13T11:41:07;94809.34;;;37.68;24.31
35676;BME280;21790;42.668;23.298;2023-07-13T11:43:37;94799.81;;;37.65;24.29
35676;BME280;21790;42.668;23.298;2023-07-13T11:46:16;94798.56;;;37.68;23.90
35676;BME280;21790;42.668;23.298;2023-07-13T11:48:42;94799.81;;;37.65;24.18
35676;BME280;21790;42.668;23.298;2023-07-13T11:51:25;94792.13;;;37.70;24.33
35676;BME280;21790;42.668;23.298;2023-07-13T11:53:54;94796.84;;;37.63;24.16
35676;BME280;21790;42.668;23.298;2023-07-13T11:56:21;94786.69;;;37.62;23.70
35676;BME280;21790;42.668;23.298;2023-07-13T11:58:57;94776.66;;;37.63;23.81
35676;BME280;21790;42.668;23.298;2023-07-13T12:01:32;94775.88;;;37.77;24.03
35676;BME280;21790;42.668;23.298;2023-07-13T12:04:03;94778.44;;;37.70;23.32
35676;BME280;21790;42.668;23.298;2023-07-13T12:06:34;94770.47;;;37.69;23.52
35676;BME280;21790;42.668;23.298;2023-07-13T12:09:10;94770.22;;;37.65;24.07
35676;BME280;21790;42.668;23.298;2023-07-13T12:11:40;94773.53;;;37.59;23.84
35676;BME280;21790;42.668;23.298;2023-07-13T12:14:14;94769.72;;;37.68;23.29
35676;BME280;21790;42.668;23.298;2023-07-13T12:16:44;94756.78;;;37.56;23.27
35676;BME280;21790;42.668;23.298;2023-07-13T12:19:23;94757.81;;;37.49;24.02
35676;BME280;21790;42.668;23.298;2023-07-13T12:21:53;94759.88;;;37.46;24.87
35676;BME280;21790;42.668;23.298;2023-07-13T12:24:20;94736.47;;;37.54;23.89
35676;BME280;21790;42.668;23.298;2023-07-13T12:26:53;94736.06;;;37.59;23.13
35676;BME280;21790;42.668;23.298;2023-07-13T12:29:19;94740.09;;;37.54;23.46
35676;BME280;21790;42.668;23.298;2023-07-13T12:31:47;94749.00;;;37.58;23.62
35676;BME280;21790;42.668;23.298;2023-07-13T12:34:16;94740.25;;;37.56;23.86
35676;BME280;21790;42.668;23.298;2023-07-13T12:37:02;94732.63;;;37.49;24.94
35676;BME280;21790;42.668;23.298;2023-07-13T12:39:35;94740.09;;;37.54;24.30
35676;BME280;21790;42.668;23.298;2023-07-13T12:42:33;94723.13;;;37.60;24.05
35676;BME280;21790;42.668;23.298;2023-07-13T12:47:49;94713.53;;;37.56;24.05
35676;BME280;21790;42.668;23.298;2023-07-13T12:50:21;94728.72;;;37.56;24.78
35676;BME280;21790;42.668;23.298;2023-07-13T12:53:01;94720.19;;;37.31;22.06
35676;BME280;21790;42.668;23.298;2023-07-13T12:55:30;94719.84;;;37.39;23.09
35676;BME280;21790;42.668;23.298;2023-07-13T12:58:03;94723.34;;;37.64;23.71
35676;BME280;21790;42.668;23.298;2023-07-13T13:00:37;94719.06;;;37.65;23.26
35676;BME280;21790;42.668;23.298;2023-07-13T13:03:29;94717.81;;;37.68;23.17
35676;BME280;21790;42.668;23.298;2023-07-13T14:20:14;94666.66;;;37.55;23.31
35676;BME280;21790;42.668;23.298;2023-07-13T14:22:42;94665.94;;;37.27;22.92
35676;BME280;21790;42.668;23.298;2023-07-13T14:25:14;94647.25;;;37.28;23.60
35676;BME280;21790;42.668;23.298;2023-07-13T14:27:42;94668.94;;;37.16;23.03
35676;BME280;21790;42.668;23.298;2023-07-13T14:30:16;94660.16;;;37.41;23.05
35676;BME280;21790;42.668;23.298;2023-07-13T14:32:46;94655.56;;;37.36;24.04
35676;BME280;21790;42.668;23.298;2023-07-13T14:35:21;94665.69;;;37.37;24.03
35676;BME280;21790;42.668;23.298;2023-07-13T14:37:53;94653.22;;;37.33;24.38
35676;BME280;21790;42.668;23.298;2023-07-13T14:43:41;94665.41;;;36.90;23.47
35676;BME280;21790;42.668;23.298;2023-07-13T14:49:40;94653.47;;;37.09;23.54
35676;BME280;21790;42.668;23.298;2023-07-13T14:52:18;94657.09;;;37.23;24.43
35676;BME280;21790;42.668;23.298;2023-07-13T14:54:47;94654.31;;;37.25;24.34
35676;BME280;21790;42.668;23.298;2023-07-13T14:57:16;94656.13;;;37.19;24.71
35676;BME280;21790;42.668;23.298;2023-07-13T14:59:42;94650.69;;;37.11;24.67
35676;BME280;21790;42.668;23.298;2023-07-13T15:02:28;94653.25;;;37.19;24.67
35676;BME280;21790;42.668;23.298;2023-07-13T15:04:55;94650.25;;;37.03;25.19
35676;BME280;21790;42.668;23.298;2023-07-13T15:07:22;94646.41;;;36.85;25.03
35676;BME280;21790;42.668;23.298;2023-07-13T15:09:50;94652.81;;;37.11;25.00
35676;BME280;21790;42.668;23.298;2023-07-13T15:12:17;94654.94;;;37.10;25.57
35676;BME280;21790;42.668;23.298;2023-07-13T15:14:45;94659.25;;;37.09;25.83
35676;BME280;21790;42.668;23.298;2023-07-13T15:17:31;94635.19;;;36.77;24.98
35676;BME280;21790;42.668;23.298;2023-07-13T15:20:01;94657.41;;;37.02;25.01
35676;BME280;21790;42.668;23.298;2023-07-13T15:22:27;94653.97;;;37.06;25.44
35676;BME280;21790;42.668;23.298;2023-07-13T15:24:53;94663.25;;;37.04;25.11
35676;BME280;21790;42.668;23.298;2023-07-13T15:27:23;94654.81;;;36.95;25.78
35676;BME280;21790;42.668;23.298;2023-07-13T15:29:58;94652.28;;;37.01;25.33
35676;BME280;21790;42.668;23.298;2023-07-13T15:32:30;94647.00;;;36.56;24.75
35676;BME280;21790;42.668;23.298;2023-07-13T15:35:30;94648.22;;;36.78;25.42
35676;BME280;21790;42.668;23.298;2023-07-13T15:37:58;94650.03;;;36.99;25.59
35676;BME280;21790;42.668;23.298;2023-07-13T15:40:24;94649.50;;;37.03;25.82
35676;BME280;21790;42.668;23.298;2023-07-13T15:42:50;94650.78;;;37.00;25.82
35676;BME280;21790;42.668;23.298;2023-07-13T15:45:17;94656.44;;;36.98;25.84
35676;BME280;21790;42.668;23.298;2023-07-13T15:47:44;94655.56;;;36.95;25.81
35676;BME280;21790;42.668;23.298;2023-07-13T15:50:40;94654.19;;;36.96;25.39
35676;BME280;21790;42.668;23.298;2023-07-13T15:53:09;94652.28;;;37.01;25.89
35676;BME280;21790;42.668;23.298;2023-07-13T15:55:38;94653.44;;;36.96;26.02
35676;BME280;21790;42.668;23.298;2023-07-13T15:58:11;94649.63;;;36.91;25.83
35676;BME280;21790;42.668;23.298;2023-07-13T16:00:37;94651.53;;;36.86;25.87
35676;BME280;21790;42.668;23.298;2023-07-13T16:03:03;94650.56;;;36.68;26.03
35676;BME280;21790;42.668;23.298;2023-07-13T16:05:28;94658.78;;;36.87;26.01
35676;BME280;21790;42.668;23.298;2023-07-13T16:07:55;94651.97;;;36.81;26.17
35676;BME280;21790;42.668;23.298;2023-07-13T16:10:30;94647.06;;;36.97;26.13
35676;BME280;21790;42.668;23.298;2023-07-13T16:12:57;94642.47;;;36.92;26.40
35676;BME280;21790;42.668;23.298;2023-07-13T16:15:24;94649.06;;;36.95;26.74
35676;BME280;21790;42.668;23.298;2023-07-13T16:17:50;94640.97;;;36.77;26.15
35676;BME280;21790;42.668;23.298;2023-07-13T16:20:17;94636.47;;;37.02;25.83
35676;BME280;21790;42.668;23.298;2023-07-13T16:22:48;94646.19;;;36.95;26.52
35676;BME280;21790;42.668;23.298;2023-07-13T16:25:18;94646.09;;;36.93;26.27
35676;BME280;21790;42.668;23.298;2023-07-13T16:27:58;94640.75;;;36.87;25.89
35676;BME280;21790;42.668;23.298;2023-07-13T16:30:30;94633.91;;;36.94;26.14
35676;BME280;21790;42.668;23.298;2023-07-13T16:33:00;94645.75;;;37.00;26.39
35676;BME280;21790;42.668;23.298;2023-07-13T16:35:32;94632.31;;;36.91;26.66
35676;BME280;21790;42.668;23.298;2023-07-13T16:38:02;94645.56;;;36.96;26.83
35676;BME280;21790;42.668;23.298;2023-07-13T16:40:33;94646.41;;;36.99;27.02
35676;BME280;21790;42.668;23.298;2023-07-13T16:43:00;94651.63;;;36.88;27.87
35676;BME280;21790;42.668;23.298;2023-07-13T16:45:31;94648.22;;;36.92;27.62
35676;BME280;21790;42.668;23.298;2023-07-13T16:48:02;94648.13;;;36.90;27.30
35676;BME280;21790;42.668;23.298;2023-07-13T16:50:32;94647.47;;;36.92;27.29
35676;BME280;21790;42.668;23.298;2023-07-13T16:52:59;94647.38;;;36.89;26.72
35676;BME280;21790;42.668;23.298;2023-07-13T16:55:26;94645.78;;;36.86;27.36
35676;BME280;21790;42.668;23.298;2023-07-13T16:57:57;94650.63;;;36.57;26.83
35676;BME280;21790;42.668;23.298;2023-07-13T17:00:32;94653.66;;;36.72;26.96
35676;BME280;21790;42.668;23.298;2023-07-13T17:03:04;94650.00;;;36.58;26.88
35676;BME280;21790;42.668;23.298;2023-07-13T17:05:37;94643.34;;;36.42;26.50
35676;BME280;21790;42.668;23.298;2023-07-13T17:08:27;94653.56;;;36.70;26.51
35676;BME280;21790;42.668;23.298;2023-07-13T17:10:56;94650.84;;;36.61;26.57
35676;BME280;21790;42.668;23.298;2023-07-13T17:13:22;94647.97;;;36.61;27.00
35676;BME280;21790;42.668;23.298;2023-07-13T17:15:51;94653.31;;;36.66;27.13
35676;BME280;21790;42.668;23.298;2023-07-13T17:18:29;94647.81;;;36.70;27.31
35676;BME280;21790;42.668;23.298;2023-07-13T17:21:09;94648.53;;;36.71;27.73
35676;BME280;21790;42.668;23.298;2023-07-13T17:23:41;94655.69;;;36.70;27.81
35676;BME280;21790;42.668;23.298;2023-07-13T17:29:29;94660.13;;;36.59;28.09
35676;BME280;21790;42.668;23.298;2023-07-13T17:32:05;94659.63;;;36.63;28.12
35676;BME280;21790;42.668;23.298;2023-07-13T17:34:38;94652.88;;;36.58;28.54
35676;BME280;21790;42.668;23.298;2023-07-13T17:37:17;94655.63;;;36.56;28.21
35676;BME280;21790;42.668;23.298;2023-07-13T17:39:44;94661.72;;;36.48;28.57
35676;BME280;21790;42.668;23.298;2023-07-13T17:42:13;94653.81;;;36.49;28.47
35676;BME280;21790;42.668;23.298;2023-07-13T17:44:42;94661.72;;;36.48;28.28
35676;BME280;21790;42.668;23.298;2023-07-13T17:47:31;94667.06;;;36.54;28.30
35676;BME280;21790;42.668;23.298;2023-07-13T17:49:57;94666.69;;;36.34;28.76
35676;BME280;21790;42.668;23.298;2023-07-13T17:52:22;94661.56;;;36.33;28.95
35676;BME280;21790;42.668;23.298;2023-07-13T17:54:53;94666.88;;;36.25;29.01
35676;BME280;21790;42.668;23.298;2023-07-13T17:57:30;94674.34;;;36.30;28.90
35676;BME280;21790;42.668;23.298;2023-07-13T18:00:07;94670.81;;;36.06;29.29
35676;BME280;21790;42.668;23.298;2023-07-13T18:03:15;94663.88;;;35.97;28.90
35676;BME280;21790;42.668;23.298;2023-07-13T18:05:44;94673.88;;;35.96;29.24
35676;BME280;21790;42.668;23.298;2023-07-13T18:13:32;94680.56;;;35.87;29.67
35676;BME280;21790;42.668;23.298;2023-07-13T18:16:24;94686.13;;;35.97;29.57
35676;BME280;21790;42.668;23.298;2023-07-13T18:18:56;94689.31;;;35.89;29.72
35676;BME280;21790;42.668;23.298;2023-07-13T18:21:36;94698.56;;;35.88;29.76
35676;BME280;21790;42.668;23.298;2023-07-13T18:24:04;94691.50;;;35.77;29.93
35676;BME280;21790;42.668;23.298;2023-07-13T18:26:31;94702.75;;;35.73;30.11
35676;BME280;21790;42.668;23.298;2023-07-13T18:29:01;94702.13;;;35.75;30.48
35676;BME280;21790;42.668;23.298;2023-07-13T18:31:35;94707.88;;;35.75;30.50
35676;BME280;21790;42.668;23.298;2023-07-13T18:34:03;94710.88;;;35.65;30.58
35676;BME280;21790;42.668;23.298;2023-07-13T18:36:31;94708.75;;;35.65;30.61
35676;BME280;21790;42.668;23.298;2023-07-13T18:38:58;94711.50;;;35.63;30.83
35676;BME280;21790;42.668;23.298;2023-07-13T18:41:26;94718.00;;;35.64;30.20
35676;BME280;21790;42.668;23.298;2023-07-13T18:43:57;94723.66;;;35.62;30.58
35676;BME280;21790;42.668;23.298;2023-07-13T18:46:32;94728.50;;;35.59;30.32
35676;BME280;21790;42.668;23.298;2023-07-13T18:49:07;94726.91;;;35.56;30.47
35676;BME280;21790;42.668;23.298;2023-07-13T18:51:43;94733.28;;;35.55;30.58
35676;BME280;21790;42.668;23.298;2023-07-13T18:54:36;94743.91;;;35.52;30.42
35676;BME280;21790;42.668;23.298;2023-07-13T18:57:14;94732.03;;;35.46;30.34
35676;BME280;21790;42.668;23.298;2023-07-13T18:59:41;94744.19;;;35.45;30.33
35676;BME280;21790;42.668;23.298;2023-07-13T19:02:16;94740.16;;;35.50;30.44
35676;BME280;21790;42.668;23.298;2023-07-13T19:04:52;94739.31;;;35.36;30.58
